createdAt,value
2019-03-31T00:02:24.056Z,10.91
2019-03-31T00:04:57.815Z,10.60
2019-03-31T00:07:31.582Z,10.37
2019-03-31T00:10:05.772Z,10.10
2019-03-31T00:12:39.475Z,9.91
2019-03-31T00:15:13.570Z,9.66
2019-03-31T00:17:47.175Z,9.45
2019-03-31T00:20:20.839Z,11.77
2019-03-31T00:22:54.492Z,15.11
2019-03-31T00:25:28.771Z,15.12
2019-03-31T00:28:02.475Z,13.64
2019-03-31T00:30:36.153Z,12.63
2019-03-31T00:33:09.781Z,11.95
2019-03-31T00:35:43.424Z,11.46
2019-03-31T00:38:17.144Z,11.09
2019-03-31T00:40:50.870Z,10.74
2019-03-31T00:43:24.585Z,10.44
2019-03-31T00:45:58.185Z,10.17
2019-03-31T00:48:33.343Z,9.89
2019-03-31T00:51:06.995Z,9.66
2019-03-31T00:53:40.599Z,9.41
2019-03-31T00:56:14.276Z,9.19
2019-03-31T00:58:47.947Z,11.22
2019-03-31T01:01:36.435Z,14.83
2019-03-31T01:04:05.401Z,14.76
2019-03-31T01:06:39.494Z,13.30
2019-03-31T01:09:32.588Z,12.28
2019-03-31T01:12:07.463Z,11.53
2019-03-31T01:14:41.449Z,11.09
2019-03-31T01:17:18.667Z,10.72
2019-03-31T01:19:53.335Z,10.41
2019-03-31T01:22:27.867Z,10.14
2019-03-31T01:25:01.696Z,9.91
2019-03-31T01:27:37.593Z,9.66
2019-03-31T01:30:12.757Z,9.44
2019-03-31T01:32:46.797Z,9.27
2019-03-31T01:35:21.232Z,9.06
2019-03-31T01:37:55.144Z,11.06
2019-03-31T01:40:29.268Z,14.49
2019-03-31T01:43:02.913Z,14.46
2019-03-31T01:45:36.939Z,13.05
2019-03-31T01:48:11.681Z,12.02
2019-03-31T01:50:45.593Z,11.35
2019-03-31T01:53:19.386Z,10.87
2019-03-31T01:55:53.008Z,10.45
2019-03-31T01:58:26.651Z,10.14
2019-03-31T02:01:01.789Z,9.81
2019-03-31T02:03:35.603Z,9.57
2019-03-31T02:06:09.406Z,9.31
2019-03-31T02:08:43.214Z,9.09
2019-03-31T02:11:17.802Z,8.88
2019-03-31T02:13:51.496Z,11.06
2019-03-31T02:16:26.684Z,14.83
2019-03-31T02:19:00.398Z,14.92
2019-03-31T02:21:34.818Z,13.36
2019-03-31T02:24:08.470Z,12.28
2019-03-31T02:26:42.091Z,11.61
2019-03-31T02:29:15.793Z,11.08
2019-03-31T02:31:49.429Z,10.67
2019-03-31T02:34:23.041Z,10.37
2019-03-31T02:36:56.735Z,10.05
2019-03-31T02:39:32.002Z,9.80
2019-03-31T02:42:05.901Z,9.53
2019-03-31T02:44:39.571Z,9.31
2019-03-31T02:47:13.296Z,9.12
2019-03-31T02:49:47.055Z,8.89
2019-03-31T02:52:20.663Z,11.29
2019-03-31T02:54:54.407Z,15.02
2019-03-31T02:57:28.747Z,14.95
2019-03-31T03:00:04.273Z,13.45
2019-03-31T03:02:42.559Z,12.35
2019-03-31T03:05:19.876Z,11.70
2019-03-31T03:07:51.576Z,11.19
2019-03-31T03:10:27.476Z,10.84
2019-03-31T03:13:04.058Z,10.51
2019-03-31T03:15:50.203Z,10.23
2019-03-31T03:18:23.878Z,9.98
2019-03-31T03:20:57.507Z,9.78
2019-03-31T03:23:31.167Z,9.59
2019-03-31T03:26:05.018Z,9.41
2019-03-31T03:28:38.676Z,11.58
2019-03-31T03:31:15.773Z,15.43
2019-03-31T03:33:49.012Z,15.49
2019-03-31T03:36:22.633Z,13.94
2019-03-31T03:38:56.456Z,12.89
2019-03-31T03:41:30.224Z,12.19
2019-03-31T03:44:03.880Z,11.70
2019-03-31T03:46:37.513Z,11.35
2019-03-31T03:49:11.519Z,11.02
2019-03-31T03:51:45.497Z,10.75
2019-03-31T03:54:19.208Z,10.48
2019-03-31T03:56:52.907Z,10.26
2019-03-31T03:59:26.791Z,10.03
2019-03-31T04:02:00.513Z,9.86
2019-03-31T04:04:34.556Z,9.68
2019-03-31T04:07:08.274Z,9.53
2019-03-31T04:09:41.893Z,11.70
2019-03-31T04:12:15.626Z,15.59
2019-03-31T04:14:49.598Z,15.65
2019-03-31T04:17:23.277Z,14.15
2019-03-31T04:19:57.101Z,13.12
2019-03-31T04:22:30.761Z,12.40
2019-03-31T04:25:04.623Z,11.94
2019-03-31T04:27:38.394Z,11.54
2019-03-31T04:30:12.147Z,11.26
2019-03-31T04:32:45.950Z,10.99
2019-03-31T04:35:19.788Z,10.74
2019-03-31T04:37:53.509Z,10.52
2019-03-31T04:40:27.263Z,10.34
2019-03-31T04:43:00.936Z,10.13
2019-03-31T04:45:34.722Z,9.96
2019-03-31T04:48:08.329Z,12.09
2019-03-31T04:50:43.541Z,16.00
2019-03-31T04:53:17.665Z,16.07
2019-03-31T04:55:51.355Z,14.59
2019-03-31T04:58:25.027Z,13.49
2019-03-31T05:00:58.863Z,12.80
2019-03-31T05:03:32.569Z,12.35
2019-03-31T05:06:06.246Z,11.98
2019-03-31T05:08:39.984Z,11.68
2019-03-31T05:11:13.686Z,11.43
2019-03-31T05:13:47.490Z,11.19
2019-03-31T05:16:21.226Z,10.99
2019-03-31T05:18:54.955Z,10.81
2019-03-31T05:21:28.627Z,12.78
2019-03-31T05:24:02.379Z,16.43
2019-03-31T05:26:36.282Z,16.32
2019-03-31T05:29:10.405Z,14.95
2019-03-31T05:31:44.087Z,13.93
2019-03-31T05:34:19.283Z,13.25
2019-03-31T05:36:53.441Z,12.85
2019-03-31T05:39:29.055Z,12.49
2019-03-31T05:42:03.098Z,12.19
2019-03-31T05:44:37.854Z,11.94
2019-03-31T05:47:11.681Z,11.74
2019-03-31T05:49:45.524Z,11.54
2019-03-31T05:52:19.331Z,11.37
2019-03-31T05:54:52.967Z,11.19
2019-03-31T05:57:26.595Z,11.05
2019-03-31T06:00:00.544Z,13.01
2019-03-31T06:02:34.511Z,16.87
2019-03-31T06:05:09.250Z,17.00
2019-03-31T06:07:43.017Z,15.57
2019-03-31T06:10:16.791Z,14.58
2019-03-31T06:12:50.559Z,13.93
2019-03-31T06:15:24.374Z,13.49
2019-03-31T06:17:58.300Z,13.16
2019-03-31T06:20:33.788Z,12.91
2019-03-31T06:23:07.456Z,12.68
2019-03-31T06:25:41.093Z,12.50
2019-03-31T06:28:14.766Z,12.30
2019-03-31T06:30:48.497Z,12.13
2019-03-31T06:33:22.098Z,11.99
2019-03-31T06:35:55.756Z,11.89
2019-03-31T06:38:29.299Z,11.75
2019-03-31T06:41:04.041Z,11.67
2019-03-31T06:43:37.749Z,14.26
2019-03-31T06:46:12.507Z,17.79
2019-03-31T06:48:46.415Z,17.56
2019-03-31T06:51:21.231Z,16.25
2019-03-31T06:53:54.997Z,15.32
2019-03-31T06:56:28.817Z,14.79
2019-03-31T06:59:02.609Z,14.44
2019-03-31T07:01:36.559Z,14.16
2019-03-31T07:04:10.233Z,13.94
2019-03-31T07:06:44.029Z,13.77
2019-03-31T07:09:17.919Z,13.60
2019-03-31T07:11:51.697Z,13.47
2019-03-31T07:14:25.538Z,13.33
2019-03-31T07:16:59.425Z,13.25
2019-03-31T07:19:33.108Z,13.14
2019-03-31T07:22:06.795Z,13.01
2019-03-31T07:24:40.489Z,12.89
2019-03-31T07:27:14.222Z,12.80
2019-03-31T07:29:47.988Z,12.71
2019-03-31T07:32:21.905Z,12.60
2019-03-31T07:34:55.720Z,12.53
2019-03-31T07:37:29.833Z,12.46
2019-03-31T07:40:12.063Z,12.41
2019-03-31T07:42:50.873Z,12.33
2019-03-31T07:45:23.733Z,12.29
2019-03-31T07:47:57.568Z,14.66
2019-03-31T07:50:31.587Z,17.06
2019-03-31T07:53:07.231Z,16.11
2019-03-31T07:55:42.822Z,15.22
2019-03-31T07:58:20.956Z,14.76
2019-03-31T08:00:57.581Z,14.44
2019-03-31T08:03:34.470Z,14.21
2019-03-31T08:06:13.087Z,14.07
2019-03-31T08:08:53.238Z,13.93
2019-03-31T08:11:33.635Z,13.87
2019-03-31T08:14:10.220Z,13.81
2019-03-31T08:16:45.618Z,13.77
2019-03-31T08:19:22.626Z,13.76
2019-03-31T08:21:57.739Z,13.74
2019-03-31T08:24:43.423Z,13.78
2019-03-31T08:27:19.517Z,13.81
2019-03-31T08:30:00.334Z,13.87
2019-03-31T08:32:35.614Z,13.95
2019-03-31T08:35:12.311Z,14.08
2019-03-31T08:37:52.543Z,14.26
2019-03-31T08:40:26.461Z,14.42
2019-03-31T08:43:06.483Z,14.55
2019-03-31T08:45:45.345Z,14.67
2019-03-31T08:48:28.339Z,14.84
2019-03-31T08:51:04.518Z,15.01
2019-03-31T08:53:39.750Z,15.19
2019-03-31T08:56:17.833Z,15.39
2019-03-31T08:58:51.652Z,15.47
2019-03-31T09:01:25.736Z,15.49
2019-03-31T09:04:07.085Z,15.50
2019-03-31T09:06:42.196Z,15.57
2019-03-31T09:09:16.223Z,15.73
2019-03-31T09:11:50.091Z,15.84
2019-03-31T09:14:30.759Z,15.90
2019-03-31T09:17:06.999Z,15.78
2019-03-31T09:19:44.763Z,15.67
2019-03-31T09:22:21.654Z,15.53
2019-03-31T09:24:58.465Z,15.46
2019-03-31T09:27:34.134Z,15.46
2019-03-31T09:30:12.060Z,15.43
2019-03-31T09:32:47.393Z,15.42
2019-03-31T09:35:23.191Z,15.43
2019-03-31T09:38:01.161Z,15.43
2019-03-31T09:40:40.222Z,15.46
2019-03-31T09:43:15.449Z,15.53
2019-03-31T09:45:51.995Z,15.53
2019-03-31T09:48:29.328Z,15.46
2019-03-31T09:51:06.039Z,15.35
2019-03-31T09:53:43.416Z,15.28
2019-03-31T09:56:19.149Z,15.34
2019-03-31T09:58:57.314Z,15.45
2019-03-31T10:01:33.681Z,15.56
2019-03-31T10:04:07.448Z,15.55
2019-03-31T10:06:41.382Z,15.49
2019-03-31T10:09:15.128Z,15.38
2019-03-31T10:11:52.428Z,15.28
2019-03-31T10:14:26.177Z,15.14
2019-03-31T10:17:00.908Z,14.94
2019-03-31T10:19:35.720Z,14.73
2019-03-31T10:22:09.433Z,14.53
2019-03-31T10:24:43.082Z,14.42
2019-03-31T10:27:16.744Z,14.31
2019-03-31T10:29:50.414Z,14.29
2019-03-31T10:32:24.016Z,14.26
2019-03-31T10:34:57.818Z,14.35
2019-03-31T10:37:31.577Z,14.35
2019-03-31T10:40:11.747Z,14.35
2019-03-31T10:42:45.550Z,14.43
2019-03-31T10:45:19.501Z,14.46
2019-03-31T10:47:53.273Z,14.39
2019-03-31T10:50:27.344Z,14.31
2019-03-31T10:53:01.225Z,14.21
2019-03-31T10:55:42.798Z,14.11
2019-03-31T10:58:21.986Z,14.07
2019-03-31T11:00:58.606Z,14.08
2019-03-31T11:03:33.234Z,14.19
2019-03-31T11:06:11.652Z,14.36
2019-03-31T11:08:48.226Z,14.44
2019-03-31T11:11:22.051Z,14.44
2019-03-31T11:13:56.251Z,14.48
2019-03-31T11:16:29.930Z,14.44
2019-03-31T11:19:05.524Z,14.44
2019-03-31T11:21:52.834Z,14.44
2019-03-31T11:24:26.832Z,14.44
2019-03-31T11:27:07.188Z,14.39
2019-03-31T11:29:58.708Z,14.32
2019-03-31T11:32:32.830Z,14.22
2019-03-31T11:35:06.627Z,14.13
2019-03-31T11:37:40.518Z,14.04
2019-03-31T11:40:16.048Z,14.00
2019-03-31T11:42:53.458Z,13.90
2019-03-31T11:45:27.172Z,13.87
2019-03-31T11:48:03.282Z,13.80
2019-03-31T11:50:37.213Z,13.77
2019-03-31T11:53:17.088Z,13.70
2019-03-31T11:55:50.826Z,13.60
2019-03-31T11:58:24.701Z,13.51
2019-03-31T12:00:58.503Z,13.47
2019-03-31T12:03:32.303Z,13.40
2019-03-31T12:06:06.011Z,13.35
2019-03-31T12:08:41.323Z,13.26
2019-03-31T12:11:15.211Z,13.22
2019-03-31T12:13:49.017Z,13.15
2019-03-31T12:16:22.771Z,13.11
2019-03-31T12:18:56.409Z,13.05
2019-03-31T12:21:30.277Z,13.07
2019-03-31T12:24:04.001Z,13.02
2019-03-31T12:26:37.745Z,13.01
2019-03-31T12:29:17.287Z,12.97
2019-03-31T12:31:54.551Z,12.95
2019-03-31T12:34:28.463Z,13.01
2019-03-31T12:37:02.314Z,13.04
2019-03-31T12:39:38.183Z,13.14
2019-03-31T12:42:12.005Z,13.23
2019-03-31T12:44:45.964Z,13.28
2019-03-31T12:47:19.841Z,13.26
2019-03-31T12:49:55.169Z,13.19
2019-03-31T12:52:46.140Z,13.12
2019-03-31T12:55:08.799Z,13.02
2019-03-31T12:57:44.475Z,12.94
2019-03-31T13:00:18.754Z,12.85
2019-03-31T13:02:58.003Z,12.72
2019-03-31T13:05:34.746Z,12.64
2019-03-31T13:08:36.300Z,12.57
2019-03-31T13:11:15.497Z,12.46
2019-03-31T13:13:50.933Z,12.37
2019-03-31T13:16:27.413Z,12.29
2019-03-31T13:19:01.414Z,12.23
2019-03-31T13:21:35.429Z,12.18
2019-03-31T13:24:11.858Z,12.13
2019-03-31T13:27:03.959Z,12.13
2019-03-31T13:29:42.982Z,12.16
2019-03-31T13:32:16.871Z,12.18
2019-03-31T13:34:50.960Z,12.22
2019-03-31T13:37:24.631Z,12.28
2019-03-31T13:39:58.401Z,12.29
2019-03-31T13:42:32.200Z,12.29
2019-03-31T13:45:10.045Z,12.30
2019-03-31T13:47:43.826Z,12.30
2019-03-31T13:50:19.857Z,12.28
2019-03-31T13:52:53.586Z,12.25
2019-03-31T13:55:27.231Z,12.19
2019-03-31T13:58:03.428Z,12.15
2019-03-31T14:00:42.826Z,12.09
2019-03-31T14:03:16.750Z,12.06
2019-03-31T14:05:50.523Z,12.03
2019-03-31T14:08:26.035Z,11.98
2019-03-31T14:10:59.627Z,11.92
2019-03-31T14:13:33.409Z,11.91
2019-03-31T14:16:07.238Z,11.86
2019-03-31T14:18:40.995Z,11.78
2019-03-31T14:21:14.827Z,11.71
2019-03-31T14:23:48.530Z,11.67
2019-03-31T14:26:22.133Z,11.64
2019-03-31T14:28:55.809Z,11.58
2019-03-31T14:31:29.577Z,11.56
2019-03-31T14:34:03.340Z,11.51
2019-03-31T14:36:39.981Z,11.49
2019-03-31T14:39:17.014Z,11.46
2019-03-31T14:41:49.487Z,11.44
2019-03-31T14:44:43.442Z,11.46
2019-03-31T14:47:17.183Z,11.50
2019-03-31T14:49:51.063Z,11.50
2019-03-31T14:52:27.668Z,11.54
2019-03-31T14:55:00.533Z,11.57
2019-03-31T14:57:34.262Z,11.60
2019-03-31T15:00:15.071Z,11.63
2019-03-31T15:02:44.995Z,11.65
2019-03-31T15:05:21.696Z,11.71
2019-03-31T15:07:58.325Z,11.75
2019-03-31T15:10:31.100Z,11.82
2019-03-31T15:13:06.030Z,11.84
2019-03-31T15:15:39.880Z,11.85
2019-03-31T15:18:13.535Z,11.86
2019-03-31T15:20:47.320Z,11.86
2019-03-31T15:23:29.020Z,11.88
2019-03-31T15:25:56.403Z,11.88
2019-03-31T15:28:30.108Z,11.89
2019-03-31T15:31:04.856Z,11.88
2019-03-31T15:33:38.508Z,11.88
2019-03-31T15:36:12.233Z,11.88
2019-03-31T15:38:45.938Z,11.89
2019-03-31T15:41:21.286Z,11.88
2019-03-31T15:43:55.098Z,11.89
2019-03-31T15:46:28.785Z,11.88
2019-03-31T15:49:02.495Z,11.88
2019-03-31T15:51:36.523Z,11.86
2019-03-31T15:54:10.265Z,11.84
2019-03-31T15:56:44.219Z,11.82
2019-03-31T15:59:17.955Z,11.81
2019-03-31T16:01:51.632Z,11.84
2019-03-31T16:04:25.374Z,11.80
2019-03-31T16:06:59.362Z,11.81
2019-03-31T16:09:32.286Z,11.81
2019-03-31T16:12:05.545Z,11.78
2019-03-31T16:14:38.629Z,11.74
2019-03-31T16:17:11.780Z,11.74
2019-03-31T16:19:44.705Z,11.70
2019-03-31T16:22:17.647Z,11.67
2019-03-31T16:24:52.321Z,11.64
2019-03-31T16:27:25.162Z,11.61
2019-03-31T16:29:58.056Z,11.57
2019-03-31T16:32:30.846Z,11.56
2019-03-31T16:35:03.744Z,11.51
2019-03-31T16:37:36.572Z,11.46
2019-03-31T16:40:09.409Z,11.43
2019-03-31T16:42:42.267Z,11.36
2019-03-31T16:45:15.229Z,11.35
2019-03-31T16:47:48.234Z,11.26
2019-03-31T16:50:21.228Z,11.22
2019-03-31T16:52:54.136Z,11.17
2019-03-31T16:55:27.373Z,11.12
2019-03-31T16:58:00.566Z,11.06
2019-03-31T17:00:34.736Z,11.02
2019-03-31T17:03:07.861Z,10.96
2019-03-31T17:05:40.672Z,10.89
2019-03-31T17:08:13.457Z,10.81
2019-03-31T17:10:46.394Z,10.75
2019-03-31T17:13:19.203Z,10.68
2019-03-31T17:15:52.115Z,10.61
2019-03-31T17:18:24.934Z,10.54
2019-03-31T17:20:57.789Z,10.48
2019-03-31T17:23:30.652Z,10.41
2019-03-31T17:26:03.631Z,10.34
2019-03-31T17:28:36.526Z,10.26
2019-03-31T17:31:09.743Z,10.17
2019-03-31T17:33:42.539Z,10.12
2019-03-31T17:36:15.426Z,10.05
2019-03-31T17:38:48.319Z,9.99
2019-03-31T17:41:21.250Z,9.91
2019-03-31T17:43:54.096Z,9.85
2019-03-31T17:46:27.006Z,9.76
2019-03-31T17:49:06.035Z,9.71
2019-03-31T17:51:38.863Z,9.64
2019-03-31T17:54:11.622Z,9.57
2019-03-31T17:56:44.411Z,9.53
2019-03-31T17:59:17.387Z,9.44
2019-03-31T18:01:50.296Z,9.36
2019-03-31T18:04:23.177Z,9.31
2019-03-31T18:06:55.988Z,9.24
2019-03-31T18:09:28.842Z,9.16
2019-03-31T18:12:01.819Z,9.07
2019-03-31T18:14:34.710Z,9.05
2019-03-31T18:17:07.547Z,8.95
2019-03-31T18:19:40.465Z,8.89
2019-03-31T18:22:16.816Z,8.84
2019-03-31T18:24:47.974Z,8.74
2019-03-31T18:27:20.906Z,8.67
2019-03-31T18:29:53.804Z,8.59
2019-03-31T18:32:26.650Z,8.51
2019-03-31T18:34:59.534Z,8.44
2019-03-31T18:37:32.597Z,8.38
2019-03-31T18:40:06.909Z,8.30
2019-03-31T18:42:39.922Z,8.21
2019-03-31T18:45:12.857Z,8.21
2019-03-31T18:47:45.916Z,8.13
2019-03-31T18:50:18.810Z,8.08
2019-03-31T18:52:51.786Z,8.02
2019-03-31T18:55:38.664Z,7.93
2019-03-31T18:58:20.406Z,7.88
2019-03-31T19:01:19.378Z,7.81
2019-03-31T19:04:09.222Z,7.75
2019-03-31T19:07:10.086Z,7.68
2019-03-31T19:10:01.762Z,7.64
2019-03-31T19:13:12.073Z,7.59
2019-03-31T19:16:08.948Z,7.52
2019-03-31T19:19:06.734Z,7.45
2019-03-31T19:22:04.576Z,7.41
2019-03-31T19:24:54.920Z,7.31
2019-03-31T19:27:34.920Z,7.30
2019-03-31T19:30:22.049Z,7.26
2019-03-31T19:33:04.690Z,7.23
2019-03-31T19:36:00.954Z,7.14
2019-03-31T19:38:52.769Z,7.09
2019-03-31T19:41:42.910Z,7.03
2019-03-31T19:44:26.025Z,6.98
2019-03-31T19:47:06.593Z,6.93
2019-03-31T19:49:57.362Z,6.88
2019-03-31T19:52:49.028Z,6.81
2019-03-31T19:56:07.034Z,6.75
2019-03-31T19:58:59.173Z,6.71
2019-03-31T20:01:52.182Z,6.64
2019-03-31T20:04:47.735Z,6.58
2019-03-31T20:07:50.303Z,6.52
2019-03-31T20:10:40.133Z,6.45
2019-03-31T20:13:31.923Z,6.43
2019-03-31T20:16:14.141Z,6.37
2019-03-31T20:19:14.858Z,6.33
2019-03-31T20:21:59.667Z,6.27
2019-03-31T20:24:50.095Z,6.21
2019-03-31T20:27:37.827Z,6.13
2019-03-31T20:30:33.359Z,6.10
2019-03-31T20:33:23.938Z,6.03
2019-03-31T20:36:21.463Z,5.98
2019-03-31T20:39:13.191Z,5.95
2019-03-31T20:41:57.351Z,5.89
2019-03-31T20:44:30.215Z,5.82
2019-03-31T20:47:03.167Z,5.78
2019-03-31T20:49:36.152Z,5.74
2019-03-31T20:52:09.055Z,5.71
2019-03-31T20:54:42.067Z,5.65
2019-03-31T20:57:14.996Z,5.59
2019-03-31T20:59:49.127Z,5.55
2019-03-31T21:02:22.391Z,5.51
2019-03-31T21:04:55.363Z,5.45
2019-03-31T21:07:28.326Z,5.42
2019-03-31T21:10:01.199Z,5.35
2019-03-31T21:12:34.178Z,5.33
2019-03-31T21:15:07.257Z,5.28
2019-03-31T21:17:40.126Z,5.31
2019-03-31T21:20:13.172Z,5.28
2019-03-31T21:22:47.018Z,5.30
2019-03-31T21:25:19.831Z,5.34
2019-03-31T21:27:52.622Z,5.28
2019-03-31T21:30:25.465Z,5.52
2019-03-31T21:32:58.296Z,5.47
2019-03-31T21:35:31.375Z,5.33
2019-03-31T21:38:04.323Z,5.26
2019-03-31T21:40:37.251Z,5.30
2019-03-31T21:43:10.051Z,5.28
2019-03-31T21:45:43.790Z,5.28
2019-03-31T21:48:16.872Z,5.37
2019-03-31T21:50:49.721Z,5.30
2019-03-31T21:53:22.755Z,5.37
2019-03-31T21:55:55.876Z,5.26
2019-03-31T21:58:29.155Z,5.44
2019-03-31T22:01:02.832Z,5.37
2019-03-31T22:03:37.016Z,5.26
2019-03-31T22:06:10.113Z,5.48
2019-03-31T22:08:43.248Z,5.33
2019-03-31T22:11:16.235Z,5.34
2019-03-31T22:13:49.241Z,5.48
2019-03-31T22:16:23.307Z,5.33
2019-03-31T22:18:56.239Z,5.38
2019-03-31T22:21:29.208Z,5.40
2019-03-31T22:24:02.182Z,5.26
2019-03-31T22:26:35.191Z,5.42
2019-03-31T22:29:09.090Z,5.28
2019-03-31T22:31:42.010Z,5.59
2019-03-31T22:34:15.086Z,5.51
2019-03-31T22:36:48.053Z,5.28
2019-03-31T22:39:21.026Z,5.57
2019-03-31T22:41:53.921Z,5.48
2019-03-31T22:44:26.887Z,5.27
2019-03-31T22:46:59.921Z,5.54
2019-03-31T22:49:32.936Z,5.41
2019-03-31T22:52:05.860Z,5.30
2019-03-31T22:54:38.760Z,5.58
2019-03-31T22:57:11.636Z,5.35
2019-03-31T22:59:44.608Z,5.44
2019-03-31T23:02:17.496Z,5.54
2019-03-31T23:04:50.568Z,5.30
2019-03-31T23:07:23.450Z,5.68
2019-03-31T23:09:56.422Z,5.57
2019-03-31T23:12:29.332Z,5.30
2019-03-31T23:15:02.307Z,5.62
2019-03-31T23:17:35.204Z,5.54
2019-03-31T23:20:08.249Z,5.26
2019-03-31T23:22:41.329Z,5.62
2019-03-31T23:25:14.251Z,5.42
2019-03-31T23:27:47.249Z,5.31
2019-03-31T23:30:20.266Z,5.67
2019-03-31T23:32:53.268Z,5.37
2019-03-31T23:35:26.288Z,5.61
2019-03-31T23:37:59.236Z,5.74
2019-03-31T23:40:32.168Z,5.38
2019-03-31T23:43:05.036Z,5.52
2019-03-31T23:45:37.921Z,5.72
2019-03-31T23:48:10.763Z,5.37
2019-03-31T23:50:43.642Z,5.61
2019-03-31T23:53:16.798Z,5.71
2019-03-31T23:55:49.705Z,5.35
2019-03-31T23:58:22.623Z,5.67
